createdAt,value
2023-05-07T00:00:53.332Z,53.60
2023-05-07T00:01:57.067Z,53.50
2023-05-07T00:02:59.679Z,53.50
2023-05-07T00:04:02.234Z,53.50
2023-05-07T00:05:04.953Z,53.50
2023-05-07T00:06:07.560Z,53.50
2023-05-07T00:07:10.199Z,53.60
2023-05-07T00:08:12.553Z,53.60
2023-05-07T00:09:15.160Z,53.50
2023-05-07T00:10:17.545Z,53.60
2023-05-07T00:11:20.058Z,53.60
2023-05-07T00:12:26.176Z,53.60
2023-05-07T00:13:31.996Z,53.60
2023-05-07T00:14:34.398Z,53.50
2023-05-07T00:15:36.966Z,53.60
2023-05-07T00:16:39.364Z,53.60
2023-05-07T00:17:41.797Z,53.60
2023-05-07T00:18:44.288Z,53.60
2023-05-07T00:19:47.766Z,53.60
2023-05-07T00:20:51.151Z,53.60
2023-05-07T00:21:55.032Z,53.60
2023-05-07T00:22:58.746Z,53.60
2023-05-07T00:24:01.169Z,53.60
2023-05-07T00:25:03.468Z,53.60
2023-05-07T00:26:06.386Z,53.60
2023-05-07T00:27:08.721Z,53.60
2023-05-07T00:28:11.208Z,53.60
2023-05-07T00:29:13.640Z,53.60
2023-05-07T00:30:16.181Z,53.60
2023-05-07T00:31:18.721Z,53.60
2023-05-07T00:32:21.030Z,53.60
2023-05-07T00:33:23.388Z,53.60
2023-05-07T00:34:25.673Z,53.60
2023-05-07T00:35:29.521Z,54.20
2023-05-07T00:36:31.910Z,53.60
2023-05-07T00:37:34.287Z,54.20
2023-05-07T00:38:36.560Z,53.60
2023-05-07T00:39:39.014Z,53.60
2023-05-07T00:40:41.680Z,54.20
2023-05-07T00:41:43.998Z,53.50
2023-05-07T00:42:48.169Z,53.60
2023-05-07T00:43:52.665Z,53.60
2023-05-07T00:44:57.227Z,53.60
2023-05-07T00:45:59.604Z,53.60
2023-05-07T00:47:03.199Z,53.60
2023-05-07T00:48:06.847Z,53.60
2023-05-07T00:49:09.365Z,53.60
2023-05-07T00:50:13.735Z,53.60
2023-05-07T00:51:16.734Z,53.60
2023-05-07T00:52:20.956Z,53.60
2023-05-07T00:53:23.258Z,53.60
2023-05-07T00:54:25.561Z,53.60
2023-05-07T00:55:28.077Z,53.50
2023-05-07T00:56:31.213Z,53.60
2023-05-07T00:57:37.063Z,53.60
2023-05-07T00:58:40.013Z,53.60
2023-05-07T00:59:43.154Z,53.60
2023-05-07T01:00:46.675Z,53.60
2023-05-07T01:01:50.274Z,53.60
2023-05-07T01:02:53.180Z,53.60
2023-05-07T01:03:56.178Z,53.60
2023-05-07T01:04:59.266Z,53.60
2023-05-07T01:06:05.954Z,53.60
2023-05-07T01:07:09.987Z,53.60
2023-05-07T01:08:15.252Z,53.60
2023-05-07T01:09:18.167Z,53.60
2023-05-07T01:10:20.767Z,53.60
2023-05-07T01:11:24.032Z,53.60
2023-05-07T01:12:26.552Z,53.60
2023-05-07T01:13:29.323Z,53.60
2023-05-07T01:14:34.026Z,53.70
2023-05-07T01:15:36.504Z,53.60
2023-05-07T01:16:38.930Z,53.60
2023-05-07T01:17:42.199Z,53.60
2023-05-07T01:18:50.766Z,53.60
2023-05-07T01:19:54.193Z,53.60
2023-05-07T01:21:00.010Z,53.60
2023-05-07T01:22:09.028Z,53.60
2023-05-07T01:23:21.090Z,53.60
2023-05-07T01:24:25.012Z,53.60
2023-05-07T01:25:28.005Z,53.60
2023-05-07T01:26:33.609Z,53.60
2023-05-07T01:27:37.550Z,53.60
2023-05-07T01:28:40.412Z,53.60
2023-05-07T01:29:42.950Z,53.60
2023-05-07T01:30:47.899Z,53.60
2023-05-07T01:31:52.885Z,53.60
2023-05-07T01:33:16.707Z,53.60
2023-05-07T01:34:20.299Z,53.60
2023-05-07T01:35:26.197Z,53.60
2023-05-07T01:36:30.109Z,53.60
2023-05-07T01:37:32.758Z,53.60
2023-05-07T01:38:36.349Z,53.60
2023-05-07T01:39:40.262Z,53.60
2023-05-07T01:40:42.881Z,53.60
2023-05-07T01:41:46.131Z,53.50
2023-05-07T01:42:49.247Z,53.60
2023-05-07T01:43:53.006Z,53.60
2023-05-07T01:44:55.732Z,53.60
2023-05-07T01:45:58.479Z,53.50
2023-05-07T01:47:02.390Z,53.60
2023-05-07T01:48:05.070Z,53.60
2023-05-07T01:49:07.485Z,53.60
2023-05-07T01:50:11.652Z,53.60
2023-05-07T01:51:14.188Z,53.60
2023-05-07T01:52:16.590Z,53.60
2023-05-07T01:53:18.927Z,53.60
2023-05-07T01:54:27.993Z,53.60
2023-05-07T01:55:33.580Z,53.60
2023-05-07T01:56:36.635Z,53.60
2023-05-07T01:57:39.535Z,54.20
2023-05-07T01:58:49.068Z,53.60
2023-05-07T01:59:51.610Z,53.50
2023-05-07T02:00:54.269Z,53.60
2023-05-07T02:01:57.079Z,53.50
2023-05-07T02:02:59.814Z,53.60
2023-05-07T02:04:13.972Z,53.60
2023-05-07T02:05:16.452Z,53.60
2023-05-07T02:06:21.202Z,53.50
2023-05-07T02:07:23.991Z,53.60
2023-05-07T02:08:26.328Z,53.50
2023-05-07T02:09:30.107Z,53.50
2023-05-07T02:10:32.680Z,53.50
2023-05-07T02:11:35.442Z,53.60
2023-05-07T02:12:37.737Z,53.60
2023-05-07T02:13:40.021Z,53.50
2023-05-07T02:14:42.616Z,53.60
2023-05-07T02:15:48.271Z,53.60
2023-05-07T02:16:50.792Z,53.50
2023-05-07T02:18:00.305Z,53.60
2023-05-07T02:19:07.513Z,53.50
2023-05-07T02:20:14.300Z,53.50
2023-05-07T02:21:17.824Z,53.50
2023-05-07T02:22:20.327Z,53.60
2023-05-07T02:23:23.086Z,53.60
2023-05-07T02:24:25.485Z,53.50
2023-05-07T02:25:28.174Z,53.50
2023-05-07T02:26:30.475Z,53.60
2023-05-07T02:27:32.866Z,53.60
2023-05-07T02:28:38.410Z,53.50
2023-05-07T02:29:41.721Z,53.60
2023-05-07T02:30:44.540Z,53.50
2023-05-07T02:31:47.208Z,53.50
2023-05-07T02:32:49.704Z,53.50
2023-05-07T02:33:52.061Z,53.50
2023-05-07T02:34:54.779Z,53.50
2023-05-07T02:35:57.245Z,53.50
2023-05-07T02:37:00.892Z,53.50
2023-05-07T02:38:04.445Z,53.50
2023-05-07T02:39:07.823Z,53.60
2023-05-07T02:40:10.693Z,53.50
2023-05-07T02:41:13.264Z,53.50
2023-05-07T02:42:15.901Z,53.50
2023-05-07T02:43:18.387Z,53.50
2023-05-07T02:44:23.248Z,53.50
2023-05-07T02:45:27.183Z,53.50
2023-05-07T02:46:31.004Z,53.50
2023-05-07T02:47:37.914Z,53.50
2023-05-07T02:48:40.657Z,53.50
2023-05-07T02:49:43.616Z,53.50
2023-05-07T02:50:46.212Z,53.50
2023-05-07T02:51:50.151Z,53.50
2023-05-07T02:52:56.973Z,53.50
2023-05-07T02:53:59.377Z,53.40
2023-05-07T02:55:01.713Z,53.90
2023-05-07T02:56:04.341Z,53.50
2023-05-07T02:57:06.839Z,53.40
2023-05-07T02:58:09.493Z,53.50
2023-05-07T02:59:13.442Z,53.40
2023-05-07T03:00:18.872Z,53.50
2023-05-07T03:01:44.980Z,53.40
2023-05-07T03:02:48.404Z,53.40
2023-05-07T03:03:50.903Z,53.50
2023-05-07T03:04:53.571Z,53.50
2023-05-07T03:05:55.896Z,53.50
2023-05-07T03:06:59.160Z,53.40
2023-05-07T03:08:02.615Z,53.40
2023-05-07T03:09:05.358Z,53.40
2023-05-07T03:10:07.839Z,53.30
2023-05-07T03:11:10.236Z,53.40
2023-05-07T03:12:12.763Z,53.40
2023-05-07T03:13:15.202Z,53.40
2023-05-07T03:14:17.556Z,53.40
2023-05-07T03:15:20.376Z,53.40
2023-05-07T03:16:22.711Z,53.40
2023-05-07T03:17:25.056Z,53.40
2023-05-07T03:18:27.453Z,53.40
2023-05-07T03:19:31.731Z,53.40
2023-05-07T03:20:35.315Z,53.30
2023-05-07T03:21:39.804Z,53.40
2023-05-07T03:22:43.794Z,53.40
2023-05-07T03:23:46.220Z,53.40
2023-05-07T03:24:48.581Z,53.40
2023-05-07T03:25:51.152Z,53.40
2023-05-07T03:26:53.720Z,53.40
2023-05-07T03:27:56.339Z,53.30
2023-05-07T03:29:02.763Z,53.40
2023-05-07T03:30:05.602Z,53.30
2023-05-07T03:31:07.890Z,53.30
2023-05-07T03:32:10.467Z,53.30
2023-05-07T03:33:13.936Z,53.30
2023-05-07T03:34:18.015Z,53.30
2023-05-07T03:35:20.339Z,53.30
2023-05-07T03:36:23.004Z,53.30
2023-05-07T03:37:25.820Z,53.30
2023-05-07T03:38:28.433Z,53.20
2023-05-07T03:39:32.054Z,53.30
2023-05-07T03:40:34.924Z,53.30
2023-05-07T03:41:38.056Z,53.30
2023-05-07T03:42:40.418Z,53.30
2023-05-07T03:43:44.045Z,53.30
2023-05-07T03:44:47.760Z,53.20
2023-05-07T03:45:50.715Z,53.30
2023-05-07T03:46:57.739Z,53.20
2023-05-07T03:48:00.373Z,53.30
2023-05-07T03:49:02.785Z,52.90
2023-05-07T03:50:06.124Z,53.20
2023-05-07T03:51:08.471Z,53.20
2023-05-07T03:52:11.784Z,53.20
2023-05-07T03:53:14.084Z,53.20
2023-05-07T03:54:16.729Z,53.20
2023-05-07T03:55:21.059Z,53.20
2023-05-07T03:56:28.912Z,53.00
2023-05-07T03:57:32.932Z,53.30
2023-05-07T03:58:35.937Z,53.10
2023-05-07T03:59:43.998Z,53.20
2023-05-07T04:00:46.726Z,53.10
2023-05-07T04:02:02.306Z,53.70
2023-05-07T04:03:07.773Z,53.20
2023-05-07T04:04:10.319Z,53.20
2023-05-07T04:05:13.814Z,53.20
2023-05-07T04:06:16.988Z,53.10
2023-05-07T04:07:21.029Z,53.70
2023-05-07T04:08:26.387Z,53.20
2023-05-07T04:09:30.502Z,53.20
2023-05-07T04:10:33.586Z,53.10
2023-05-07T04:11:41.249Z,53.00
2023-05-07T04:12:45.866Z,53.10
2023-05-07T04:13:52.835Z,53.10
2023-05-07T04:14:58.700Z,53.30
2023-05-07T04:16:02.402Z,53.00
2023-05-07T04:17:04.889Z,53.10
2023-05-07T04:18:10.105Z,53.10
2023-05-07T04:19:13.807Z,53.10
2023-05-07T04:20:17.207Z,53.10
2023-05-07T04:21:21.916Z,53.00
2023-05-07T04:22:26.082Z,53.00
2023-05-07T04:23:28.527Z,53.10
2023-05-07T04:24:34.058Z,53.00
2023-05-07T04:25:37.633Z,53.00
2023-05-07T04:27:03.258Z,53.00
2023-05-07T04:28:05.603Z,52.90
2023-05-07T04:29:09.527Z,53.00
2023-05-07T04:30:12.919Z,53.00
2023-05-07T04:31:16.161Z,53.00
2023-05-07T04:32:19.074Z,53.00
2023-05-07T04:33:21.966Z,52.90
2023-05-07T04:34:25.769Z,52.90
2023-05-07T04:35:28.345Z,53.00
2023-05-07T04:36:31.525Z,53.00
2023-05-07T04:37:37.430Z,53.00
2023-05-07T04:38:40.784Z,52.90
2023-05-07T04:39:44.704Z,52.90
2023-05-07T04:40:48.508Z,52.90
2023-05-07T04:41:54.722Z,52.80
2023-05-07T04:42:58.484Z,53.20
2023-05-07T04:44:01.137Z,52.80
2023-05-07T04:45:06.487Z,52.80
2023-05-07T04:46:11.179Z,52.90
2023-05-07T04:47:13.705Z,52.90
2023-05-07T04:48:16.453Z,52.90
2023-05-07T04:49:20.599Z,52.90
2023-05-07T04:50:25.433Z,52.90
2023-05-07T04:51:33.944Z,52.80
2023-05-07T04:52:36.557Z,52.80
2023-05-07T04:53:39.234Z,52.80
2023-05-07T04:54:42.115Z,52.80
2023-05-07T04:55:45.943Z,52.80
2023-05-07T04:56:48.619Z,52.80
2023-05-07T04:57:51.652Z,52.70
2023-05-07T04:58:54.213Z,52.80
2023-05-07T04:59:58.209Z,52.80
2023-05-07T05:01:01.594Z,52.70
2023-05-07T05:02:05.852Z,52.70
2023-05-07T05:03:08.671Z,52.80
2023-05-07T05:04:14.415Z,52.70
2023-05-07T05:05:16.940Z,52.80
2023-05-07T05:06:20.805Z,52.80
2023-05-07T05:07:23.124Z,52.70
2023-05-07T05:08:25.390Z,52.80
2023-05-07T05:09:27.744Z,52.70
2023-05-07T05:10:46.777Z,52.80
2023-05-07T05:11:49.114Z,52.70
2023-05-07T05:12:51.476Z,52.70
2023-05-07T05:13:53.990Z,52.60
2023-05-07T05:14:57.026Z,52.70
2023-05-07T05:15:59.417Z,52.70
2023-05-07T05:17:04.777Z,52.70
2023-05-07T05:18:07.556Z,52.70
2023-05-07T05:19:10.077Z,52.70
2023-05-07T05:20:15.164Z,52.60
2023-05-07T05:21:19.141Z,52.70
2023-05-07T05:22:24.903Z,52.70
2023-05-07T05:23:27.855Z,52.60
2023-05-07T05:24:30.160Z,52.70
2023-05-07T05:25:33.161Z,52.70
2023-05-07T05:26:36.516Z,52.60
2023-05-07T05:27:39.166Z,52.60
2023-05-07T05:28:41.651Z,52.60
2023-05-07T05:29:44.393Z,52.60
2023-05-07T05:30:47.040Z,52.60
2023-05-07T05:31:49.526Z,52.60
2023-05-07T05:32:52.048Z,52.60
2023-05-07T05:33:54.997Z,52.60
2023-05-07T05:34:57.667Z,52.60
2023-05-07T05:36:01.034Z,52.60
2023-05-07T05:37:03.483Z,52.60
2023-05-07T05:38:08.050Z,52.60
2023-05-07T05:39:11.404Z,52.60
2023-05-07T05:40:13.764Z,52.60
2023-05-07T05:41:16.132Z,52.60
2023-05-07T05:42:18.482Z,52.60
2023-05-07T05:43:21.452Z,52.60
2023-05-07T05:44:23.960Z,52.50
2023-05-07T05:45:26.491Z,52.50
2023-05-07T05:46:29.818Z,52.60
2023-05-07T05:47:32.418Z,52.60
2023-05-07T05:48:37.256Z,52.60
2023-05-07T05:49:44.234Z,52.60
2023-05-07T05:50:47.802Z,52.60
2023-05-07T05:51:52.157Z,52.50
2023-05-07T05:52:54.741Z,52.60
2023-05-07T05:53:57.373Z,52.60
2023-05-07T05:55:00.329Z,52.50
2023-05-07T05:56:04.082Z,52.50
2023-05-07T05:57:08.423Z,52.50
2023-05-07T05:58:10.893Z,52.50
2023-05-07T05:59:17.049Z,52.50
2023-05-07T06:00:19.759Z,52.50
2023-05-07T06:01:22.003Z,52.90
2023-05-07T06:02:26.719Z,52.50
2023-05-07T06:03:29.150Z,52.50
2023-05-07T06:04:33.673Z,52.50
2023-05-07T06:05:35.992Z,52.50
2023-05-07T06:06:38.461Z,52.50
2023-05-07T06:07:41.030Z,52.40
2023-05-07T06:08:43.413Z,52.40
2023-05-07T06:09:47.724Z,52.50
2023-05-07T06:10:50.114Z,52.40
2023-05-07T06:11:52.546Z,52.40
2023-05-07T06:12:55.207Z,52.50
2023-05-07T06:13:57.723Z,52.40
2023-05-07T06:15:00.373Z,52.40
2023-05-07T06:16:02.764Z,52.50
2023-05-07T06:17:06.365Z,52.40
2023-05-07T06:18:09.187Z,52.50
2023-05-07T06:19:13.008Z,52.40
2023-05-07T06:20:16.078Z,52.40
2023-05-07T06:21:18.352Z,52.50
2023-05-07T06:22:20.731Z,52.50
2023-05-07T06:23:23.083Z,52.50
2023-05-07T06:24:25.686Z,52.40
2023-05-07T06:25:29.360Z,52.50
2023-05-07T06:26:31.699Z,52.50
2023-05-07T06:27:34.021Z,52.50
2023-05-07T06:28:39.469Z,52.40
2023-05-07T06:29:46.293Z,52.50
2023-05-07T06:30:51.496Z,52.50
2023-05-07T06:31:54.829Z,52.40
2023-05-07T06:32:58.333Z,52.40
2023-05-07T06:34:03.314Z,52.40
2023-05-07T06:35:10.801Z,52.40
2023-05-07T06:36:15.159Z,52.40
2023-05-07T06:37:17.574Z,52.40
2023-05-07T06:38:30.123Z,52.40
2023-05-07T06:39:32.489Z,52.40
2023-05-07T06:40:34.761Z,52.40
2023-05-07T06:41:38.456Z,52.50
2023-05-07T06:42:45.393Z,52.50
2023-05-07T06:44:10.044Z,52.40
2023-05-07T06:45:22.551Z,52.50
2023-05-07T06:46:25.161Z,52.40
2023-05-07T06:47:27.519Z,52.50
2023-05-07T06:48:31.352Z,52.40
2023-05-07T06:49:38.312Z,52.40
2023-05-07T06:50:40.785Z,52.40
2023-05-07T06:51:43.139Z,52.40
2023-05-07T06:52:45.403Z,52.40
2023-05-07T06:53:47.785Z,52.40
2023-05-07T06:54:50.745Z,52.40
2023-05-07T06:55:56.154Z,52.40
2023-05-07T06:56:58.459Z,52.40
2023-05-07T06:58:02.956Z,52.40
2023-05-07T06:59:05.428Z,52.40
2023-05-07T07:00:12.350Z,52.40
2023-05-07T07:01:23.964Z,52.40
2023-05-07T07:02:26.395Z,52.40
2023-05-07T07:03:28.739Z,52.40
2023-05-07T07:04:32.673Z,52.40
2023-05-07T07:05:41.651Z,52.50
2023-05-07T07:06:44.043Z,52.40
2023-05-07T07:07:53.851Z,52.30
2023-05-07T07:08:56.911Z,52.50
2023-05-07T07:09:59.606Z,52.50
2023-05-07T07:11:02.347Z,52.40
2023-05-07T07:12:04.986Z,52.40
2023-05-07T07:13:07.357Z,52.40
2023-05-07T07:14:09.720Z,52.50
2023-05-07T07:15:21.654Z,52.40
2023-05-07T07:16:25.090Z,52.50
2023-05-07T07:17:28.160Z,52.40
2023-05-07T07:18:32.099Z,52.40
2023-05-07T07:19:34.956Z,52.40
2023-05-07T07:20:39.319Z,52.40
2023-05-07T07:21:43.919Z,52.40
2023-05-07T07:22:47.712Z,52.40
2023-05-07T07:23:51.780Z,52.40
2023-05-07T07:24:56.091Z,52.40
2023-05-07T07:25:59.682Z,52.40
2023-05-07T07:27:02.843Z,52.40
2023-05-07T07:28:06.329Z,52.50
2023-05-07T07:29:08.618Z,52.40
2023-05-07T07:30:11.616Z,52.50
2023-05-07T07:31:17.158Z,52.40
2023-05-07T07:32:20.289Z,52.50
2023-05-07T07:33:25.526Z,52.40
2023-05-07T07:34:27.996Z,52.50
2023-05-07T07:35:30.952Z,52.40
2023-05-07T07:36:42.916Z,52.50
2023-05-07T07:37:51.378Z,52.50
2023-05-07T07:38:54.818Z,52.40
2023-05-07T07:39:57.113Z,52.50
2023-05-07T07:40:59.469Z,52.40
2023-05-07T07:42:01.899Z,52.50
2023-05-07T07:43:06.089Z,52.50
2023-05-07T07:44:09.739Z,52.50
2023-05-07T07:45:13.696Z,52.50
2023-05-07T07:46:20.301Z,52.50
2023-05-07T07:47:22.991Z,52.50
2023-05-07T07:48:27.258Z,52.50
2023-05-07T07:49:29.773Z,52.50
2023-05-07T07:50:44.343Z,52.50
2023-05-07T07:51:48.248Z,52.60
2023-05-07T07:52:50.741Z,52.60
2023-05-07T07:53:54.625Z,52.60
2023-05-07T07:54:56.887Z,52.60
2023-05-07T07:55:59.871Z,52.60
2023-05-07T07:57:05.938Z,52.50
2023-05-07T07:58:09.581Z,52.60
2023-05-07T07:59:24.146Z,52.60
2023-05-07T08:00:27.629Z,52.60
2023-05-07T08:01:33.869Z,52.60
2023-05-07T08:02:36.368Z,52.60
2023-05-07T08:03:39.390Z,52.60
2023-05-07T08:04:44.319Z,52.60
2023-05-07T08:05:46.827Z,52.70
2023-05-07T08:06:49.354Z,52.60
2023-05-07T08:07:53.093Z,52.70
2023-05-07T08:08:59.658Z,52.70
2023-05-07T08:10:01.944Z,52.70
2023-05-07T08:11:04.419Z,52.80
2023-05-07T08:12:10.187Z,52.80
2023-05-07T08:13:13.082Z,52.80
2023-05-07T08:14:16.925Z,52.80
2023-05-07T08:15:22.028Z,52.80
2023-05-07T08:16:26.665Z,52.80
2023-05-07T08:17:29.816Z,52.70
2023-05-07T08:18:32.826Z,52.80
2023-05-07T08:19:37.748Z,52.80
2023-05-07T08:20:44.807Z,52.80
2023-05-07T08:21:52.213Z,52.80
2023-05-07T08:22:55.718Z,52.80
2023-05-07T08:23:58.676Z,52.90
2023-05-07T08:25:01.319Z,52.80
2023-05-07T08:26:04.387Z,52.80
2023-05-07T08:27:06.868Z,52.90
2023-05-07T08:28:10.245Z,52.80
2023-05-07T08:29:14.288Z,52.90
2023-05-07T08:30:17.099Z,52.90
2023-05-07T08:31:21.586Z,52.90
2023-05-07T08:32:24.164Z,52.90
2023-05-07T08:33:26.520Z,52.90
2023-05-07T08:34:30.228Z,53.50
2023-05-07T08:35:34.057Z,53.00
2023-05-07T08:36:36.576Z,52.90
2023-05-07T08:37:39.058Z,53.00
2023-05-07T08:38:43.819Z,53.00
2023-05-07T08:39:46.336Z,53.00
2023-05-07T08:40:55.005Z,53.10
2023-05-07T08:41:58.981Z,53.00
2023-05-07T08:43:03.175Z,53.00
2023-05-07T08:44:07.288Z,53.00
2023-05-07T08:45:10.465Z,53.00
2023-05-07T08:46:18.030Z,53.00
2023-05-07T08:47:22.331Z,53.00
2023-05-07T08:48:28.427Z,53.10
2023-05-07T08:49:39.119Z,53.00
2023-05-07T08:50:43.481Z,53.10
2023-05-07T08:51:48.144Z,53.10
2023-05-07T08:52:50.614Z,53.10
2023-05-07T08:53:53.702Z,53.10
2023-05-07T08:55:03.870Z,53.10
2023-05-07T08:56:07.267Z,53.10
2023-05-07T08:57:10.216Z,53.10
2023-05-07T08:58:12.912Z,53.10
2023-05-07T08:59:15.757Z,53.10
2023-05-07T09:00:19.756Z,53.10
2023-05-07T09:01:25.506Z,53.20
2023-05-07T09:02:28.691Z,53.10
2023-05-07T09:03:32.028Z,53.10
2023-05-07T09:04:35.229Z,53.20
2023-05-07T09:05:37.909Z,53.20
2023-05-07T09:06:43.259Z,53.20
2023-05-07T09:07:47.940Z,53.20
2023-05-07T09:08:52.191Z,53.30
2023-05-07T09:09:58.868Z,53.30
2023-05-07T09:11:02.449Z,53.30
2023-05-07T09:12:06.455Z,53.20
2023-05-07T09:13:14.263Z,53.30
2023-05-07T09:14:17.184Z,53.20
2023-05-07T09:15:21.317Z,53.30
2023-05-07T09:16:24.784Z,53.30
2023-05-07T09:17:27.148Z,53.30
2023-05-07T09:18:29.487Z,53.40
2023-05-07T09:19:32.115Z,53.30
2023-05-07T09:20:38.912Z,53.60
2023-05-07T09:21:41.983Z,53.30
2023-05-07T09:22:46.279Z,53.30
2023-05-07T09:23:52.664Z,53.30
2023-05-07T09:24:56.597Z,53.30
2023-05-07T09:26:02.683Z,53.40
2023-05-07T09:27:09.730Z,53.40
2023-05-07T09:28:12.532Z,53.30
2023-05-07T09:29:16.692Z,53.10
2023-05-07T09:30:19.369Z,53.40
2023-05-07T09:31:24.841Z,53.40
2023-05-07T09:32:29.304Z,53.30
2023-05-07T09:33:32.193Z,53.40
2023-05-07T09:34:38.020Z,53.40
2023-05-07T09:35:41.603Z,53.40
2023-05-07T09:36:48.827Z,53.40
2023-05-07T09:38:04.302Z,53.40
2023-05-07T09:39:08.987Z,53.50
2023-05-07T09:40:24.064Z,53.40
2023-05-07T09:41:28.669Z,53.40
2023-05-07T09:42:39.141Z,53.50
2023-05-07T09:43:41.538Z,53.40
2023-05-07T09:44:45.699Z,53.40
2023-05-07T09:45:53.828Z,53.50
2023-05-07T09:47:00.962Z,53.50
2023-05-07T09:48:10.769Z,53.50
2023-05-07T09:49:20.921Z,53.50
2023-05-07T09:50:28.745Z,53.60
2023-05-07T09:51:35.757Z,53.50
2023-05-07T09:52:40.012Z,53.60
2023-05-07T09:53:43.904Z,53.50
2023-05-07T09:54:48.226Z,53.60
2023-05-07T09:55:52.981Z,53.60
2023-05-07T09:56:57.233Z,53.60
2023-05-07T09:58:03.643Z,53.60
2023-05-07T09:59:07.125Z,53.50
2023-05-07T10:00:10.884Z,53.50
2023-05-07T10:01:32.392Z,53.60
2023-05-07T10:02:36.384Z,53.90
2023-05-07T10:03:40.966Z,53.60
2023-05-07T10:04:43.849Z,53.60
2023-05-07T10:05:48.463Z,53.60
2023-05-07T10:06:51.447Z,53.60
2023-05-07T10:07:54.121Z,53.60
2023-05-07T10:09:00.186Z,53.60
2023-05-07T10:10:03.358Z,53.70
2023-05-07T10:11:11.538Z,53.60
2023-05-07T10:12:14.087Z,53.70
2023-05-07T10:13:20.246Z,53.70
2023-05-07T10:14:26.470Z,53.70
2023-05-07T10:15:29.925Z,53.70
2023-05-07T10:16:37.114Z,53.80
2023-05-07T10:17:42.238Z,53.80
2023-05-07T10:18:46.997Z,53.70
2023-05-07T10:19:55.300Z,53.80
2023-05-07T10:21:02.741Z,53.80
2023-05-07T10:22:06.878Z,53.80
2023-05-07T10:23:15.272Z,53.90
2023-05-07T10:24:22.860Z,53.80
2023-05-07T10:25:32.068Z,53.80
2023-05-07T10:26:40.842Z,53.90
2023-05-07T10:27:43.735Z,53.90
2023-05-07T10:28:47.869Z,53.80
2023-05-07T10:30:09.202Z,54.50
2023-05-07T10:31:36.456Z,53.80
2023-05-07T10:32:41.865Z,53.90
2023-05-07T10:33:50.307Z,54.00
2023-05-07T10:34:56.155Z,54.00
2023-05-07T10:36:00.872Z,53.90
2023-05-07T10:37:05.031Z,54.00
2023-05-07T10:38:07.500Z,54.00
2023-05-07T10:39:12.550Z,53.90
2023-05-07T10:40:15.931Z,54.00
2023-05-07T10:41:19.647Z,54.00
2023-05-07T10:42:24.296Z,54.00
2023-05-07T10:43:39.652Z,54.00
2023-05-07T10:44:42.124Z,54.00
2023-05-07T10:46:08.295Z,54.00
2023-05-07T10:47:11.829Z,54.10
2023-05-07T10:48:29.475Z,54.10
2023-05-07T10:49:58.361Z,54.10
2023-05-07T10:51:24.441Z,54.10
2023-05-07T10:52:34.840Z,54.20
2023-05-07T10:54:10.906Z,54.20
2023-05-07T10:55:15.785Z,54.10
2023-05-07T10:56:19.907Z,54.10
2023-05-07T10:57:37.670Z,54.20
2023-05-07T10:58:55.148Z,54.10
2023-05-07T11:00:38.944Z,54.20
2023-05-07T11:01:55.762Z,54.20
2023-05-07T11:03:23.395Z,54.20
2023-05-07T11:04:39.788Z,54.30
2023-05-07T11:06:09.271Z,54.30
2023-05-07T11:07:35.897Z,54.50
2023-05-07T11:08:56.492Z,54.30
2023-05-07T11:10:06.674Z,54.30
2023-05-07T11:11:43.631Z,54.30
2023-05-07T11:12:51.365Z,54.40
2023-05-07T11:13:58.353Z,54.40
2023-05-07T11:15:35.845Z,54.40
2023-05-07T11:16:41.410Z,54.40
2023-05-07T11:17:56.424Z,54.40
2023-05-07T11:19:02.814Z,54.80
2023-05-07T11:20:11.147Z,54.40
2023-05-07T11:21:33.413Z,54.40
2023-05-07T11:22:43.003Z,54.40
2023-05-07T11:24:09.165Z,54.50
2023-05-07T11:25:24.450Z,54.40
2023-05-07T11:26:45.718Z,54.50
2023-05-07T11:27:48.270Z,54.50
2023-05-07T11:28:51.282Z,54.50
2023-05-07T11:29:54.861Z,54.60
2023-05-07T11:30:57.763Z,54.60
2023-05-07T11:32:01.355Z,54.60
2023-05-07T11:33:08.182Z,54.60
2023-05-07T11:34:11.956Z,54.60
2023-05-07T11:35:16.416Z,54.60
2023-05-07T11:36:20.111Z,54.60
2023-05-07T11:37:25.040Z,54.60
2023-05-07T11:38:35.770Z,54.60
2023-05-07T11:39:38.585Z,54.60
2023-05-07T11:40:56.766Z,54.60
2023-05-07T11:41:59.284Z,54.70
2023-05-07T11:43:11.260Z,54.70
2023-05-07T11:44:13.576Z,54.70
2023-05-07T11:45:23.931Z,54.70
2023-05-07T11:46:28.805Z,54.80
2023-05-07T11:47:31.735Z,54.70
2023-05-07T11:48:34.121Z,54.70
2023-05-07T11:49:37.109Z,54.70
2023-05-07T11:50:53.660Z,54.80
2023-05-07T11:51:56.275Z,54.70
2023-05-07T11:52:58.924Z,54.80
2023-05-07T11:54:01.375Z,54.80
2023-05-07T11:55:05.576Z,54.90
2023-05-07T11:56:11.581Z,54.80
2023-05-07T11:57:16.728Z,54.90
2023-05-07T11:58:22.097Z,54.80
2023-05-07T11:59:24.374Z,54.80
2023-05-07T12:00:26.665Z,55.20
2023-05-07T12:01:30.550Z,54.90
2023-05-07T12:02:33.824Z,54.90
2023-05-07T12:03:38.697Z,54.80
2023-05-07T12:04:41.225Z,54.90
2023-05-07T12:05:43.780Z,54.90
2023-05-07T12:06:47.948Z,54.90
2023-05-07T12:07:56.510Z,54.90
2023-05-07T12:08:58.890Z,55.00
2023-05-07T12:10:05.307Z,55.00
2023-05-07T12:11:12.499Z,54.90
2023-05-07T12:12:16.647Z,55.00
2023-05-07T12:13:20.107Z,54.90
2023-05-07T12:14:22.648Z,55.00
2023-05-07T12:15:24.947Z,55.00
2023-05-07T12:16:28.008Z,55.00
2023-05-07T12:17:30.374Z,55.00
2023-05-07T12:18:33.881Z,55.00
2023-05-07T12:19:37.082Z,55.10
2023-05-07T12:20:40.275Z,55.10
2023-05-07T12:21:42.685Z,55.00
2023-05-07T12:22:45.308Z,55.00
2023-05-07T12:23:47.821Z,55.10
2023-05-07T12:24:50.912Z,55.10
2023-05-07T12:25:54.566Z,55.10
2023-05-07T12:26:57.108Z,55.10
2023-05-07T12:28:01.502Z,55.10
2023-05-07T12:29:04.676Z,55.10
2023-05-07T12:30:07.295Z,55.10
2023-05-07T12:31:09.739Z,55.10
2023-05-07T12:32:18.485Z,55.20
2023-05-07T12:33:25.690Z,55.10
2023-05-07T12:34:28.854Z,55.20
2023-05-07T12:35:32.239Z,55.20
2023-05-07T12:36:38.550Z,55.20
2023-05-07T12:37:41.806Z,55.20
2023-05-07T12:38:44.262Z,55.30
2023-05-07T12:39:49.948Z,55.20
2023-05-07T12:40:54.889Z,55.30
2023-05-07T12:42:01.847Z,55.20
2023-05-07T12:43:04.106Z,55.30
2023-05-07T12:44:06.867Z,55.30
2023-05-07T12:45:13.050Z,55.20
2023-05-07T12:46:18.135Z,55.30
2023-05-07T12:47:21.495Z,55.30
2023-05-07T12:48:24.591Z,55.30
2023-05-07T12:49:27.968Z,55.30
2023-05-07T12:50:34.212Z,55.30
2023-05-07T12:51:36.909Z,55.30
2023-05-07T12:52:39.222Z,55.40
2023-05-07T12:53:43.514Z,55.30
2023-05-07T12:54:46.013Z,55.30
2023-05-07T12:55:49.225Z,55.40
2023-05-07T12:56:53.052Z,55.40
2023-05-07T12:57:55.970Z,55.40
2023-05-07T12:58:59.917Z,55.40
2023-05-07T13:00:02.413Z,55.40
2023-05-07T13:01:08.571Z,55.30
2023-05-07T13:02:10.987Z,55.30
2023-05-07T13:03:21.623Z,55.40
2023-05-07T13:04:25.348Z,55.40
2023-05-07T13:05:27.644Z,55.40
2023-05-07T13:06:33.103Z,55.30
2023-05-07T13:07:35.598Z,55.30
2023-05-07T13:08:38.662Z,55.40
2023-05-07T13:09:40.883Z,55.30
2023-05-07T13:10:43.221Z,55.70
2023-05-07T13:11:45.607Z,55.40
2023-05-07T13:12:48.911Z,55.40
2023-05-07T13:13:52.363Z,55.40
2023-05-07T13:14:57.183Z,55.50
2023-05-07T13:15:59.815Z,55.50
2023-05-07T13:17:02.241Z,55.50
2023-05-07T13:18:05.029Z,55.30
2023-05-07T13:19:07.320Z,55.50
2023-05-07T13:20:13.832Z,55.50
2023-05-07T13:21:16.909Z,55.50
2023-05-07T13:22:19.399Z,55.50
2023-05-07T13:23:21.995Z,55.50
2023-05-07T13:24:24.347Z,55.40
2023-05-07T13:25:29.356Z,55.50
2023-05-07T13:26:32.329Z,55.50
2023-05-07T13:27:37.806Z,55.50
2023-05-07T13:28:40.209Z,55.50
2023-05-07T13:29:42.470Z,55.60
2023-05-07T13:30:45.082Z,55.50
2023-05-07T13:31:48.493Z,55.60
2023-05-07T13:32:53.586Z,55.60
2023-05-07T13:33:57.444Z,55.60
2023-05-07T13:35:00.770Z,55.50
2023-05-07T13:36:05.663Z,55.60
2023-05-07T13:37:11.320Z,55.50
2023-05-07T13:38:13.957Z,55.50
2023-05-07T13:39:16.572Z,55.60
2023-05-07T13:40:20.166Z,55.50
2023-05-07T13:41:22.556Z,55.60
2023-05-07T13:42:24.850Z,55.50
2023-05-07T13:43:27.464Z,55.60
2023-05-07T13:44:29.701Z,55.60
2023-05-07T13:45:32.125Z,55.60
2023-05-07T13:46:34.583Z,55.60
2023-05-07T13:47:40.126Z,55.60
2023-05-07T13:48:43.181Z,56.10
2023-05-07T13:49:45.926Z,55.70
2023-05-07T13:50:48.479Z,55.70
2023-05-07T13:51:51.271Z,55.70
2023-05-07T13:52:55.513Z,55.60
2023-05-07T13:53:59.499Z,55.60
2023-05-07T13:55:02.605Z,55.70